Time;durP1;ratioP1;P1;durP2;ratioP2;P2;SDS_P1;SDS_P2;PMS_P1;PMS_P2;Temp;Humidity;BMP_temperature;BMP_pressure;BME280_temperature;BME280_humidity;BME280_pressure;Samples;Min_cycle;Max_cycle;Signal;HPM_P1;HPM_P2
2023/06/06 00:00:31;;;;;;;0.10;0.10;;;;;;;;;;5055795;28;20241;-78
2023/06/06 00:02:59;;;;;;;0.00;0.00;;;;;;;;;;5076563;28;20206;-78
2023/06/06 00:05:27;;;;;;;0.57;0.57;;;;;;;;;;5055480;28;20210;-78
2023/06/06 00:07:54;;;;;;;0.00;0.00;;;;;;;;;;5076361;28;20248;-78
2023/06/06 00:10:22;;;;;;;0.00;0.00;;;;;;;;;;5054853;28;20211;-78
2023/06/06 00:12:51;;;;;;;0.00;0.00;;;;;;;;;;5077043;28;20274;-78
2023/06/06 00:15:17;;;;;;;0.03;0.03;;;;;;;;;;5054539;28;20442;-77
2023/06/06 00:17:44;;;;;;;0.10;0.10;;;;;;;;;;5077447;28;20194;-78
2023/06/06 00:20:11;;;;;;;0.00;0.00;;;;;;;;;;5053613;28;20571;-77
2023/06/06 00:22:38;;;;;;;0.00;0.00;;;;;;;;;;5078581;28;20200;-78
2023/06/06 00:25:05;;;;;;;0.00;0.00;;;;;;;;;;5063272;28;20235;-78
2023/06/06 00:27:33;;;;;;;0.00;0.00;;;;;;;;;;5069003;28;20289;-78
2023/06/06 00:29:59;;;;;;;0.10;0.10;;;;;;;;;;5063064;28;20236;-77
2023/06/06 00:32:26;;;;;;;0.10;0.10;;;;;;;;;;5068620;28;20315;-78
2023/06/06 00:34:52;;;;;;;0.40;0.40;;;;;;;;;;5063139;28;20242;-78
2023/06/06 00:37:19;;;;;;;0.10;0.10;;;;;;;;;;5068433;28;20269;-78
2023/06/06 00:39:45;;;;;;;0.00;0.00;;;;;;;;;;5063380;28;20470;-78
2023/06/06 00:42:11;;;;;;;0.10;0.10;;;;;;;;;;5068560;28;20596;-77
2023/06/06 00:44:39;;;;;;;0.10;0.10;;;;;;;;;;5064797;28;20206;-77
2023/06/06 00:47:06;;;;;;;0.08;0.08;;;;;;;;;;5072050;28;20482;-77
2023/06/06 00:49:32;;;;;;;0.10;0.10;;;;;;;;;;5067389;28;20268;-76
2023/06/06 00:52:00;;;;;;;0.10;0.10;;;;;;;;;;5070989;28;20292;-77
2023/06/06 00:54:27;;;;;;;0.00;0.00;;;;;;;;;;5067660;28;20281;-77
2023/06/06 00:56:54;;;;;;;0.10;0.10;;;;;;;;;;5070343;28;20238;-76
2023/06/06 00:59:22;;;;;;;0.00;0.00;;;;;;;;;;5068643;28;20463;-77
2023/06/06 01:01:50;;;;;;;0.10;0.10;;;;;;;;;;5069679;28;20644;-77
2023/06/06 01:04:17;;;;;;;0.00;0.00;;;;;;;;;;5068861;28;20213;-77
2023/06/06 01:06:43;;;;;;;0.10;0.10;;;;;;;;;;5068935;28;20240;-76
2023/06/06 01:09:11;;;;;;;0.00;0.00;;;;;;;;;;5069934;28;20237;-77
2023/06/06 01:11:45;;;;;;;0.10;0.10;;;;;;;;;;5067984;28;20241;-76
2023/06/06 01:14:16;;;;;;;0.05;0.05;;;;;;;;;;5069300;28;20264;-77
2023/06/06 01:16:43;;;;;;;0.00;0.00;;;;;;;;;;5068698;28;20563;-76
2023/06/06 01:19:14;;;;;;;0.10;0.10;;;;;;;;;;5069374;28;20212;-77
2023/06/06 01:21:42;;;;;;;0.15;0.15;;;;;;;;;;5068140;28;20260;-77
2023/06/06 01:24:09;;;;;;;0.00;0.00;;;;;;;;;;5069465;28;20214;-77
2023/06/06 01:26:35;;;;;;;0.10;0.10;;;;;;;;;;5067441;28;20242;-76
2023/06/06 01:29:02;;;;;;;0.10;0.10;;;;;;;;;;5070263;28;20275;-76
2023/06/06 01:31:30;;;;;;;0.05;0.05;;;;;;;;;;5066473;28;20276;-77
2023/06/06 01:34:00;;;;;;;0.10;0.10;;;;;;;;;;5071067;28;20400;-76
2023/06/06 01:36:29;;;;;;;0.00;0.00;;;;;;;;;;5066130;28;20299;-76
2023/06/06 01:39:00;;;;;;;0.10;0.10;;;;;;;;;;5071041;28;20284;-77
2023/06/06 01:41:28;;;;;;;0.10;0.10;;;;;;;;;;5066002;28;20475;-77
2023/06/06 01:43:55;;;;;;;0.10;0.10;;;;;;;;;;5071202;28;20247;-77
2023/06/06 01:46:22;;;;;;;0.00;0.00;;;;;;;;;;5065375;28;20435;-76
2023/06/06 01:48:48;;;;;;;0.05;0.05;;;;;;;;;;5071695;28;20282;-77
2023/06/06 01:51:15;;;;;;;0.00;0.00;;;;;;;;;;5064209;28;20248;-77
2023/06/06 01:53:41;;;;;;;0.10;0.10;;;;;;;;;;5072353;28;20216;-76
2023/06/06 01:56:12;;;;;;;0.08;0.08;;;;;;;;;;5061857;28;20270;-77
2023/06/06 01:58:38;;;;;;;0.10;0.10;;;;;;;;;;5072817;28;20227;-77
2023/06/06 02:01:06;;;;;;;0.10;0.10;;;;;;;;;;5062724;28;20307;-77
2023/06/06 02:03:32;;;;;;;0.10;0.10;;;;;;;;;;5073742;28;20451;-77
2023/06/06 02:06:01;;;;;;;0.20;0.20;;;;;;;;;;5062133;28;20253;-77
2023/06/06 02:08:27;;;;;;;0.00;0.00;;;;;;;;;;5074266;28;20496;-77
2023/06/06 02:10:54;;;;;;;0.10;0.10;;;;;;;;;;5061301;28;20263;-77
2023/06/06 02:13:22;;;;;;;0.00;0.00;;;;;;;;;;5074789;28;20205;-77
2023/06/06 02:15:49;;;;;;;0.10;0.10;;;;;;;;;;5060335;28;20275;-76
2023/06/06 02:18:16;;;;;;;0.10;0.10;;;;;;;;;;5075307;28;20455;-78
2023/06/06 02:20:42;;;;;;;0.10;0.10;;;;;;;;;;5059568;28;20275;-77
2023/06/06 02:23:08;;;;;;;0.08;0.08;;;;;;;;;;5076530;28;20200;-77
2023/06/06 02:25:37;;;;;;;0.10;0.10;;;;;;;;;;5058723;28;20271;-77
2023/06/06 02:28:04;;;;;;;0.10;0.10;;;;;;;;;;5076750;28;20377;-76
2023/06/06 02:30:31;;;;;;;0.03;0.03;;;;;;;;;;5057782;28;20380;-77
2023/06/06 02:32:58;;;;;;;0.20;0.20;;;;;;;;;;5077771;28;20441;-77
2023/06/06 02:35:24;;;;;;;0.10;0.10;;;;;;;;;;5057175;28;20213;-77
2023/06/06 02:37:51;;;;;;;0.00;0.00;;;;;;;;;;5078492;28;20486;-77
2023/06/06 02:40:17;;;;;;;0.10;0.10;;;;;;;;;;5056016;28;20258;-77
2023/06/06 02:42:44;;;;;;;0.10;0.10;;;;;;;;;;5079031;28;20233;-77
2023/06/06 02:45:11;;;;;;;0.10;0.10;;;;;;;;;;5054970;28;20249;-76
2023/06/06 02:47:39;;;;;;;0.10;0.10;;;;;;;;;;5079818;28;20266;-77
2023/06/06 02:50:05;;;;;;;0.10;0.10;;;;;;;;;;5065029;28;20396;-77
2023/06/06 02:52:32;;;;;;;0.03;0.03;;;;;;;;;;5070034;28;20309;-77
2023/06/06 02:54:59;;;;;;;0.10;0.10;;;;;;;;;;5064971;28;20390;-77
2023/06/06 02:57:25;;;;;;;0.10;0.10;;;;;;;;;;5070055;28;20459;-77
2023/06/06 02:59:52;;;;;;;0.03;0.03;;;;;;;;;;5064446;28;20267;-77
2023/06/06 03:02:18;;;;;;;0.08;0.08;;;;;;;;;;5069750;28;20291;-77
2023/06/06 03:04:46;;;;;;;0.10;0.10;;;;;;;;;;5064438;28;20234;-77
2023/06/06 03:07:13;;;;;;;0.00;0.00;;;;;;;;;;5069406;28;20469;-77
2023/06/06 03:09:40;;;;;;;0.00;0.00;;;;;;;;;;5064599;28;20206;-76
2023/06/06 03:12:06;;;;;;;0.10;0.10;;;;;;;;;;5069310;28;20254;-77
2023/06/06 03:14:33;;;;;;;0.00;0.00;;;;;;;;;;5064573;28;20445;-77
2023/06/06 03:16:59;;;;;;;0.10;0.10;;;;;;;;;;5068393;28;20241;-77
2023/06/06 03:19:26;;;;;;;0.00;0.00;;;;;;;;;;5065164;28;20233;-77
2023/06/06 03:21:54;;;;;;;0.10;0.10;;;;;;;;;;5067366;28;20306;-77
2023/06/06 03:24:20;;;;;;;0.10;0.10;;;;;;;;;;5066132;28;20212;-77
2023/06/06 03:26:47;;;;;;;0.10;0.10;;;;;;;;;;5066585;28;20711;-77
2023/06/06 03:29:13;;;;;;;0.10;0.10;;;;;;;;;;5066586;28;20522;-77
2023/06/06 03:31:41;;;;;;;0.10;0.10;;;;;;;;;;5065663;28;20235;-77
2023/06/06 03:34:07;;;;;;;0.10;0.10;;;;;;;;;;5067592;28;20403;-77
2023/06/06 03:36:34;;;;;;;0.10;0.10;;;;;;;;;;5064803;28;20265;-77
2023/06/06 03:39:01;;;;;;;0.03;0.03;;;;;;;;;;5068327;28;20238;-77
2023/06/06 03:41:28;;;;;;;0.00;0.00;;;;;;;;;;5064017;28;20237;-77
2023/06/06 03:43:54;;;;;;;0.10;0.10;;;;;;;;;;5069001;28;20534;-77
2023/06/06 03:46:21;;;;;;;0.10;0.10;;;;;;;;;;5062844;28;20254;-77
2023/06/06 03:48:47;;;;;;;0.10;0.10;;;;;;;;;;5069837;28;20279;-77
2023/06/06 03:51:13;;;;;;;0.10;0.10;;;;;;;;;;5061912;28;20252;-77
2023/06/06 03:53:40;;;;;;;0.10;0.10;;;;;;;;;;5070764;28;20380;-78
2023/06/06 03:56:08;;;;;;;0.10;0.10;;;;;;;;;;5060702;28;20244;-77
2023/06/06 03:58:34;;;;;;;0.05;0.05;;;;;;;;;;5071377;28;20232;-77
2023/06/06 04:01:01;;;;;;;0.10;0.10;;;;;;;;;;5060190;28;20251;-77
2023/06/06 04:03:29;;;;;;;0.10;0.10;;;;;;;;;;5072186;28;20206;-77
2023/06/06 04:05:55;;;;;;;0.10;0.10;;;;;;;;;;5058186;28;20722;-77
2023/06/06 04:08:22;;;;;;;0.10;0.10;;;;;;;;;;5074361;28;20231;-77
2023/06/06 04:10:48;;;;;;;0.00;0.00;;;;;;;;;;5058491;28;20337;-77
2023/06/06 04:13:16;;;;;;;0.10;0.10;;;;;;;;;;5073807;28;20199;-77
2023/06/06 04:15:42;;;;;;;0.10;0.10;;;;;;;;;;5057458;28;20236;-77
2023/06/06 04:18:09;;;;;;;0.50;0.50;;;;;;;;;;5074586;28;20434;-77
2023/06/06 04:20:35;;;;;;;0.05;0.05;;;;;;;;;;5060030;28;20295;-77
2023/06/06 04:23:01;;;;;;;0.10;0.10;;;;;;;;;;5079482;28;20268;-77
2023/06/06 04:25:28;;;;;;;0.10;0.10;;;;;;;;;;5059983;28;20302;-77
2023/06/06 04:27:55;;;;;;;0.10;0.10;;;;;;;;;;5080531;28;20199;-77
2023/06/06 04:30:23;;;;;;;0.00;0.00;;;;;;;;;;5058820;28;20208;-77
2023/06/06 04:32:50;;;;;;;0.10;0.10;;;;;;;;;;5081068;28;20191;-77
2023/06/06 04:35:17;;;;;;;0.10;0.10;;;;;;;;;;5058074;28;20204;-76
2023/06/06 04:37:48;;;;;;;0.10;0.10;;;;;;;;;;5081413;28;20498;-77
2023/06/06 04:40:15;;;;;;;0.10;0.10;;;;;;;;;;5057876;28;20280;-76
2023/06/06 04:42:41;;;;;;;0.10;0.10;;;;;;;;;;5081841;28;20224;-77
2023/06/06 04:45:09;;;;;;;0.10;0.10;;;;;;;;;;5061629;28;20232;-76
2023/06/06 04:47:40;;;;;;;0.08;0.08;;;;;;;;;;5082476;28;20224;-77
2023/06/06 04:50:07;;;;;;;0.00;0.00;;;;;;;;;;5066996;28;20472;-77
2023/06/06 04:52:34;;;;;;;0.03;0.03;;;;;;;;;;5055666;28;20282;-77
2023/06/06 04:55:03;;;;;;;0.10;0.10;;;;;;;;;;5067091;28;20238;-76
2023/06/06 04:57:29;;;;;;;1.75;0.88;;;;;;;;;;5072190;28;20285;-77
2023/06/06 04:59:56;;;;;;;0.45;0.45;;;;;;;;;;5066633;28;20312;-76
2023/06/06 05:02:23;;;;;;;0.38;0.30;;;;;;;;;;5072023;28;20532;-76
2023/06/06 05:04:53;;;;;;;0.10;0.10;;;;;;;;;;5066865;28;20209;-76
2023/06/06 05:07:22;;;;;;;0.10;0.10;;;;;;;;;;5072476;28;20303;-77
2023/06/06 05:09:49;;;;;;;0.10;0.10;;;;;;;;;;5066436;28;20204;-76
2023/06/06 05:12:15;;;;;;;0.10;0.10;;;;;;;;;;5071880;28;20243;-77
2023/06/06 05:14:42;;;;;;;0.10;0.10;;;;;;;;;;5066724;28;20211;-76
2023/06/06 05:17:09;;;;;;;0.10;0.10;;;;;;;;;;5071795;28;20411;-76
2023/06/06 05:19:36;;;;;;;1.27;1.27;;;;;;;;;;5066435;28;20206;-75
2023/06/06 05:22:04;;;;;;;0.10;0.10;;;;;;;;;;5070857;28;20302;-76
2023/06/06 05:24:30;;;;;;;0.10;0.10;;;;;;;;;;5067102;28;20239;-76
2023/06/06 05:26:56;;;;;;;0.10;0.10;;;;;;;;;;5070318;28;20310;-76
2023/06/06 05:29:26;;;;;;;0.10;0.10;;;;;;;;;;5067271;28;20217;-76
2023/06/06 05:31:52;;;;;;;1.08;1.08;;;;;;;;;;5069192;28;20482;-77
2023/06/06 05:34:18;;;;;;;0.10;0.10;;;;;;;;;;5067950;28;20250;-77
2023/06/06 05:36:45;;;;;;;0.10;0.10;;;;;;;;;;5068556;28;20301;-76
2023/06/06 05:39:14;;;;;;;0.00;0.00;;;;;;;;;;5069139;28;20433;-76
2023/06/06 05:41:40;;;;;;;0.10;0.10;;;;;;;;;;5067790;28;20231;-76
2023/06/06 05:44:06;;;;;;;0.00;0.00;;;;;;;;;;5069651;28;20426;-76
2023/06/06 05:46:34;;;;;;;0.10;0.10;;;;;;;;;;5066827;28;20261;-76
2023/06/06 05:49:00;;;;;;;0.55;0.55;;;;;;;;;;5070050;28;20244;-77
2023/06/06 05:51:27;;;;;;;0.10;0.10;;;;;;;;;;5065918;28;20258;-76
2023/06/06 05:53:53;;;;;;;0.08;0.08;;;;;;;;;;5071187;28;20204;-76
2023/06/06 05:56:21;;;;;;;0.10;0.10;;;;;;;;;;5064882;28;20298;-76
2023/06/06 05:58:49;;;;;;;0.08;0.08;;;;;;;;;;5071657;28;20295;-76
2023/06/06 06:01:16;;;;;;;0.40;0.38;;;;;;;;;;5063935;28;20495;-76
2023/06/06 06:03:44;;;;;;;0.08;0.08;;;;;;;;;;5072847;28;20250;-76
2023/06/06 06:06:10;;;;;;;0.10;0.10;;;;;;;;;;5063724;28;20239;-77
2023/06/06 06:08:37;;;;;;;0.03;0.03;;;;;;;;;;5073167;28;20534;-73
2023/06/06 06:11:03;;;;;;;0.08;0.08;;;;;;;;;;5062774;28;20302;-73
2023/06/06 06:13:32;;;;;;;0.10;0.10;;;;;;;;;;5073961;28;20277;-73
2023/06/06 06:15:59;;;;;;;0.20;0.20;;;;;;;;;;5062085;28;20504;-73
2023/06/06 06:18:25;;;;;;;0.10;0.10;;;;;;;;;;5074602;28;20528;-73
2023/06/06 06:20:51;;;;;;;0.00;0.00;;;;;;;;;;5060827;28;20240;-73
2023/06/06 06:23:18;;;;;;;0.47;0.47;;;;;;;;;;5075307;28;20258;-75
2023/06/06 06:25:44;;;;;;;0.10;0.10;;;;;;;;;;5059988;28;20262;-74
2023/06/06 06:28:20;;;;;;;0.00;0.00;;;;;;;;;;5076081;28;20432;-73
2023/06/06 06:30:48;;;;;;;0.05;0.05;;;;;;;;;;5060200;28;20241;-73
2023/06/06 06:33:15;;;;;;;0.10;0.10;;;;;;;;;;5075283;28;20278;-74
2023/06/06 06:35:42;;;;;;;0.10;0.10;;;;;;;;;;5059268;28;20242;-73
2023/06/06 06:38:08;;;;;;;0.10;0.10;;;;;;;;;;5076405;28;20203;-74
2023/06/06 06:40:34;;;;;;;0.10;0.10;;;;;;;;;;5058482;28;20253;-74
2023/06/06 06:43:01;;;;;;;0.90;0.90;;;;;;;;;;5076520;28;20241;-74
2023/06/06 06:45:27;;;;;;;0.00;0.00;;;;;;;;;;5057600;28;20256;-74
2023/06/06 06:47:55;;;;;;;0.10;0.10;;;;;;;;;;5077620;28;20214;-73
2023/06/06 06:50:21;;;;;;;0.10;0.10;;;;;;;;;;5056621;28;20533;-74
2023/06/06 06:52:48;;;;;;;0.10;0.10;;;;;;;;;;5078669;28;20276;-74
2023/06/06 06:55:15;;;;;;;0.10;0.10;;;;;;;;;;5055346;28;20210;-74
2023/06/06 06:57:43;;;;;;;0.10;0.10;;;;;;;;;;5079535;28;20433;-74
2023/06/06 07:00:14;;;;;;;0.10;0.10;;;;;;;;;;5055666;28;20262;-74
2023/06/06 07:02:42;;;;;;;0.10;0.10;;;;;;;;;;5079446;28;20304;-74
2023/06/06 07:05:10;;;;;;;0.10;0.10;;;;;;;;;;5055627;28;20418;-75
2023/06/06 07:07:42;;;;;;;0.10;0.10;;;;;;;;;;5079557;28;20219;-75
2023/06/06 07:10:09;;;;;;;0.10;0.10;;;;;;;;;;5054670;28;20232;-76
2023/06/06 07:12:36;;;;;;;0.10;0.10;;;;;;;;;;5079530;28;20231;-75
2023/06/06 07:15:02;;;;;;;0.10;0.10;;;;;;;;;;5064364;28;20236;-74
2023/06/06 07:17:29;;;;;;;0.10;0.10;;;;;;;;;;5069678;28;20422;-77
2023/06/06 07:19:55;;;;;;;0.00;0.00;;;;;;;;;;5064458;28;20205;-77
2023/06/06 07:22:23;;;;;;;0.10;0.10;;;;;;;;;;5069471;28;20235;-77
2023/06/06 07:24:50;;;;;;;0.10;0.10;;;;;;;;;;5064423;28;20228;-77
2023/06/06 07:27:18;;;;;;;0.05;0.05;;;;;;;;;;5069303;28;20582;-77
2023/06/06 07:29:44;;;;;;;0.00;0.00;;;;;;;;;;5064067;28;20212;-74
2023/06/06 07:32:11;;;;;;;0.10;0.10;;;;;;;;;;5069427;28;20298;-76
2023/06/06 07:34:37;;;;;;;0.10;0.10;;;;;;;;;;5064309;28;20472;-77
2023/06/06 07:37:04;;;;;;;0.10;0.10;;;;;;;;;;5068785;28;20261;-76
2023/06/06 07:39:32;;;;;;;0.10;0.10;;;;;;;;;;5064371;28;20204;-76
2023/06/06 07:41:59;;;;;;;0.10;0.10;;;;;;;;;;5068092;28;20350;-76
2023/06/06 07:44:25;;;;;;;0.00;0.00;;;;;;;;;;5064901;28;20211;-76
2023/06/06 07:46:52;;;;;;;0.10;0.10;;;;;;;;;;5066957;28;20253;-75
2023/06/06 07:49:18;;;;;;;0.10;0.10;;;;;;;;;;5065885;28;20277;-74
2023/06/06 07:51:46;;;;;;;0.10;0.10;;;;;;;;;;5065933;28;20446;-74
2023/06/06 07:54:12;;;;;;;0.10;0.10;;;;;;;;;;5066758;28;20290;-75
2023/06/06 07:56:40;;;;;;;0.10;0.10;;;;;;;;;;5065314;28;20273;-74
2023/06/06 07:59:09;;;;;;;0.10;0.10;;;;;;;;;;5067458;28;20234;-74
2023/06/06 08:01:35;;;;;;;0.10;0.10;;;;;;;;;;5064511;28;20283;-74
2023/06/06 08:04:04;;;;;;;0.10;0.10;;;;;;;;;;5067788;28;20219;-76
2023/06/06 08:06:32;;;;;;;0.10;0.10;;;;;;;;;;5064215;28;20441;-77
2023/06/06 08:08:59;;;;;;;0.05;0.05;;;;;;;;;;5068351;28;20204;-74
2023/06/06 08:11:26;;;;;;;0.00;0.00;;;;;;;;;;5063417;28;20288;-77
2023/06/06 08:13:53;;;;;;;0.05;0.05;;;;;;;;;;5069166;28;20366;-77
2023/06/06 08:16:20;;;;;;;0.10;0.10;;;;;;;;;;5062661;28;20329;-77
2023/06/06 08:18:46;;;;;;;0.10;0.10;;;;;;;;;;5069783;28;20206;-78
2023/06/06 08:21:13;;;;;;;0.10;0.10;;;;;;;;;;5061824;28;20248;-78
2023/06/06 08:23:39;;;;;;;0.10;0.10;;;;;;;;;;5070367;28;20236;-78
2023/06/06 08:26:05;;;;;;;0.10;0.10;;;;;;;;;;5060637;28;20299;-78
2023/06/06 08:28:33;;;;;;;0.10;0.10;;;;;;;;;;5071481;28;20212;-78
2023/06/06 08:31:03;;;;;;;0.05;0.05;;;;;;;;;;5059670;28;20259;-78
2023/06/06 08:33:30;;;;;;;0.00;0.00;;;;;;;;;;5071978;28;20188;-78
2023/06/06 08:35:56;;;;;;;0.10;0.10;;;;;;;;;;5059378;28;20249;-75
2023/06/06 08:38:23;;;;;;;0.47;0.47;;;;;;;;;;5072342;28;20209;-75
2023/06/06 08:40:52;;;;;;;0.10;0.10;;;;;;;;;;5058353;28;20585;-75
2023/06/06 08:43:20;;;;;;;0.28;0.28;;;;;;;;;;5073069;28;20223;-75
2023/06/06 08:45:48;;;;;;;0.10;0.10;;;;;;;;;;5057833;28;20240;-75
2023/06/06 08:48:17;;;;;;;0.10;0.10;;;;;;;;;;5073747;28;20197;-76
2023/06/06 08:50:43;;;;;;;0.10;0.10;;;;;;;;;;5057364;28;20281;-75
2023/06/06 08:53:11;;;;;;;0.10;0.10;;;;;;;;;;5074231;28;20206;-76
2023/06/06 08:55:38;;;;;;;0.03;0.03;;;;;;;;;;5056772;28;20248;-77
2023/06/06 08:58:06;;;;;;;0.10;0.10;;;;;;;;;;5074889;28;20284;-77
2023/06/06 09:00:33;;;;;;;0.10;0.10;;;;;;;;;;5056176;28;20239;-77
2023/06/06 09:03:02;;;;;;;0.10;0.10;;;;;;;;;;5075495;28;20285;-77
2023/06/06 09:05:30;;;;;;;0.00;0.00;;;;;;;;;;5056794;28;20460;-76
2023/06/06 09:07:57;;;;;;;0.00;0.00;;;;;;;;;;5079719;28;20233;-76
2023/06/06 09:10:23;;;;;;;0.00;0.00;;;;;;;;;;5058631;28;20561;-76
2023/06/06 09:12:50;;;;;;;0.00;0.00;;;;;;;;;;5080483;28;20598;-76
2023/06/06 09:15:16;;;;;;;0.10;0.10;;;;;;;;;;5057495;28;20204;-76
2023/06/06 09:17:44;;;;;;;0.05;0.05;;;;;;;;;;5080794;28;20561;-75
2023/06/06 09:20:11;;;;;;;0.10;0.10;;;;;;;;;;5056543;28;20209;-77
2023/06/06 09:22:43;;;;;;;0.10;0.10;;;;;;;;;;5081299;28;20242;-76
2023/06/06 09:25:17;;;;;;;0.25;0.25;;;;;;;;;;5056711;28;20218;-76
2023/06/06 09:27:43;;;;;;;0.05;0.05;;;;;;;;;;5080963;28;20200;-76
2023/06/06 09:30:18;;;;;;;0.00;0.00;;;;;;;;;;5066279;28;20222;-75
2023/06/06 09:32:46;;;;;;;0.10;0.10;;;;;;;;;;5058248;28;20221;-76
2023/06/06 09:35:16;;;;;;;0.00;0.00;;;;;;;;;;5056852;28;20207;-76
2023/06/06 09:37:44;;;;;;;0.20;0.20;;;;;;;;;;5080349;28;20262;-76
2023/06/06 09:40:10;;;;;;;0.00;0.00;;;;;;;;;;5056472;28;20429;-75
2023/06/06 09:42:37;;;;;;;0.10;0.10;;;;;;;;;;5080992;28;20259;-76
2023/06/06 09:45:06;;;;;;;0.10;0.10;;;;;;;;;;5066153;28;20204;-76
2023/06/06 09:47:32;;;;;;;0.05;0.05;;;;;;;;;;5054686;28;20220;-76
2023/06/06 09:49:59;;;;;;;0.00;0.00;;;;;;;;;;5066296;28;20259;-76
2023/06/06 09:52:25;;;;;;;0.10;0.10;;;;;;;;;;5071224;28;20545;-76
2023/06/06 09:54:55;;;;;;;0.00;0.00;;;;;;;;;;5066061;28;20236;-78
2023/06/06 09:57:22;;;;;;;0.10;0.10;;;;;;;;;;5071270;28;20316;-77
2023/06/06 09:59:50;;;;;;;0.08;0.08;;;;;;;;;;5066011;28;20262;-72
2023/06/06 10:02:19;;;;;;;0.00;0.00;;;;;;;;;;5071021;28;20304;-77
2023/06/06 10:04:47;;;;;;;0.00;0.00;;;;;;;;;;5066394;28;20237;-76
2023/06/06 10:07:13;;;;;;;0.10;0.10;;;;;;;;;;5071037;28;20472;-78
2023/06/06 10:09:41;;;;;;;0.10;0.10;;;;;;;;;;5065981;28;20205;-77
2023/06/06 10:12:09;;;;;;;0.10;0.10;;;;;;;;;;5070893;28;20256;-77
2023/06/06 10:14:36;;;;;;;0.00;0.00;;;;;;;;;;5065485;28;20233;-77
2023/06/06 10:17:04;;;;;;;0.00;0.00;;;;;;;;;;5069116;28;20308;-77
2023/06/06 10:19:31;;;;;;;0.00;0.00;;;;;;;;;;5066018;28;20206;-77
2023/06/06 10:21:58;;;;;;;0.00;0.00;;;;;;;;;;5069369;28;20466;-77
2023/06/06 10:24:25;;;;;;;0.00;0.00;;;;;;;;;;5066413;28;20296;-77
2023/06/06 10:26:54;;;;;;;0.00;0.00;;;;;;;;;;5068258;28;20241;-77
2023/06/06 10:29:26;;;;;;;1.20;1.10;;;;;;;;;;5067019;28;20416;-78
2023/06/06 10:31:54;;;;;;;0.00;0.00;;;;;;;;;;5068524;28;20253;-78
2023/06/06 10:34:23;;;;;;;0.08;0.08;;;;;;;;;;5067010;28;20392;-76
2023/06/06 10:36:49;;;;;;;0.10;0.10;;;;;;;;;;5067951;28;20247;-76
2023/06/06 10:39:18;;;;;;;0.10;0.10;;;;;;;;;;5067135;28;20205;-77
2023/06/06 10:41:49;;;;;;;0.00;0.00;;;;;;;;;;5067177;28;20254;-77
2023/06/06 10:44:15;;;;;;;0.10;0.10;;;;;;;;;;5067487;28;20405;-77
2023/06/06 10:46:43;;;;;;;0.43;0.43;;;;;;;;;;5066961;28;20240;-77
2023/06/06 10:49:10;;;;;;;0.10;0.10;;;;;;;;;;5068144;28;20265;-77
2023/06/06 10:51:37;;;;;;;0.05;0.05;;;;;;;;;;5065966;28;20244;-77
2023/06/06 10:54:20;;;;;;;0.05;0.05;;;;;;;;;;5068890;28;20272;-77
2023/06/06 10:56:50;;;;;;;0.05;0.05;;;;;;;;;;5067071;28;20318;-77
2023/06/06 10:59:17;;;;;;;0.10;0.10;;;;;;;;;;5067113;28;20227;-77
2023/06/06 11:01:45;;;;;;;0.10;0.10;;;;;;;;;;5066716;28;20247;-77
2023/06/06 11:04:18;;;;;;;0.00;0.00;;;;;;;;;;5067669;28;20230;-77
2023/06/06 11:06:45;;;;;;;0.10;0.10;;;;;;;;;;5066784;28;20304;-77
2023/06/06 11:09:17;;;;;;;0.17;0.17;;;;;;;;;;5067213;28;20212;-77
2023/06/06 11:11:43;;;;;;;0.10;0.10;;;;;;;;;;5066541;28;20242;-78
2023/06/06 11:14:10;;;;;;;0.00;0.00;;;;;;;;;;5067281;28;20207;-77
2023/06/06 11:16:59;;;;;;;0.10;0.10;;;;;;;;;;5065483;28;20245;-78
2023/06/06 11:19:30;;;;;;;0.10;0.10;;;;;;;;;;5065417;28;20211;-78
2023/06/06 11:21:58;;;;;;;0.10;0.10;;;;;;;;;;5068265;28;20265;-71
2023/06/06 11:24:31;;;;;;;0.05;0.05;;;;;;;;;;5065144;28;20260;-72
2023/06/06 11:26:57;;;;;;;0.10;0.10;;;;;;;;;;5067918;28;20321;-72
2023/06/06 11:29:24;;;;;;;0.00;0.00;;;;;;;;;;5065020;28;20522;-72
2023/06/06 11:31:50;;;;;;;0.10;0.10;;;;;;;;;;5066968;28;20240;-73
2023/06/06 11:34:18;;;;;;;0.05;0.05;;;;;;;;;;5066064;28;20228;-72
2023/06/06 11:36:45;;;;;;;0.10;0.10;;;;;;;;;;5066261;28;20307;-72
2023/06/06 11:39:12;;;;;;;0.10;0.10;;;;;;;;;;5067047;28;20236;-72
2023/06/06 11:41:41;;;;;;;0.10;0.10;;;;;;;;;;5065293;28;20238;-72
2023/06/06 11:44:07;;;;;;;0.10;0.10;;;;;;;;;;5067380;28;20259;-72
2023/06/06 11:46:43;;;;;;;0.10;0.10;;;;;;;;;;5064623;28;20305;-72
2023/06/06 11:49:10;;;;;;;0.00;0.00;;;;;;;;;;5067063;28;20393;-72
2023/06/06 11:51:38;;;;;;;0.68;0.68;;;;;;;;;;5064920;28;20238;-71
2023/06/06 11:54:11;;;;;;;0.10;0.10;;;;;;;;;;5067914;28;20244;-71
2023/06/06 11:56:37;;;;;;;0.00;0.00;;;;;;;;;;5065002;28;20276;-71
2023/06/06 11:59:04;;;;;;;0.10;0.10;;;;;;;;;;5067760;28;20229;-71
2023/06/06 12:01:30;;;;;;;0.00;0.00;;;;;;;;;;5063974;28;20242;-71
2023/06/06 12:03:57;;;;;;;0.10;0.10;;;;;;;;;;5068623;28;20420;-72
2023/06/06 12:06:24;;;;;;;0.10;0.10;;;;;;;;;;5063200;28;20236;-72
2023/06/06 12:08:52;;;;;;;0.08;0.08;;;;;;;;;;5069193;28;20423;-72
2023/06/06 12:11:22;;;;;;;0.10;0.10;;;;;;;;;;5062429;28;20242;-74
2023/06/06 12:13:49;;;;;;;0.10;0.10;;;;;;;;;;5069456;28;20207;-73
2023/06/06 12:16:20;;;;;;;0.10;0.10;;;;;;;;;;5061954;28;20253;-73
2023/06/06 12:18:46;;;;;;;0.00;0.00;;;;;;;;;;5069832;28;20206;-73
2023/06/06 12:21:16;;;;;;;0.10;0.10;;;;;;;;;;5061459;28;20254;-73
2023/06/06 12:23:43;;;;;;;0.00;0.00;;;;;;;;;;5070157;28;20240;-73
2023/06/06 12:26:12;;;;;;;0.22;0.22;;;;;;;;;;5061202;28;20292;-73
2023/06/06 12:28:53;;;;;;;0.10;0.10;;;;;;;;;;5070572;28;20394;-74
2023/06/06 12:31:20;;;;;;;0.10;0.10;;;;;;;;;;5062332;28;20246;-74
2023/06/06 12:33:47;;;;;;;0.75;0.75;;;;;;;;;;5069287;28;20273;-74
2023/06/06 12:36:17;;;;;;;0.00;0.00;;;;;;;;;;5061526;28;20248;-74
2023/06/06 12:38:43;;;;;;;0.15;0.15;;;;;;;;;;5069867;28;20205;-74
2023/06/06 12:41:11;;;;;;;0.00;0.00;;;;;;;;;;5063336;28;20586;-74
2023/06/06 12:43:38;;;;;;;1.55;1.55;;;;;;;;;;5074538;28;20260;-72
2023/06/06 12:46:04;;;;;;;0.08;0.08;;;;;;;;;;5064169;28;20303;-72
2023/06/06 12:48:30;;;;;;;0.00;0.00;;;;;;;;;;5075538;28;20206;-72
2023/06/06 12:50:57;;;;;;;0.10;0.10;;;;;;;;;;5063097;28;20241;-72
2023/06/06 12:53:24;;;;;;;0.00;0.00;;;;;;;;;;5076430;28;20417;-72
2023/06/06 12:55:51;;;;;;;0.20;0.20;;;;;;;;;;5062435;28;20242;-72
2023/06/06 12:58:19;;;;;;;0.00;0.00;;;;;;;;;;5076985;28;20211;-72
2023/06/06 13:00:46;;;;;;;0.17;0.17;;;;;;;;;;5061764;28;20575;-72
2023/06/06 13:03:13;;;;;;;0.08;0.08;;;;;;;;;;5077510;28;20282;-72
2023/06/06 13:05:39;;;;;;;0.10;0.10;;;;;;;;;;5060923;28;20247;-72
2023/06/06 13:08:06;;;;;;;0.10;0.10;;;;;;;;;;5078178;28;20403;-72
2023/06/06 13:10:34;;;;;;;0.10;0.10;;;;;;;;;;5059614;28;20241;-72
2023/06/06 13:13:01;;;;;;;0.00;0.00;;;;;;;;;;5078713;28;20244;-72
2023/06/06 13:15:31;;;;;;;0.10;0.10;;;;;;;;;;5058884;28;20209;-72
2023/06/06 13:17:57;;;;;;;0.10;0.10;;;;;;;;;;5079161;28;20216;-72
2023/06/06 13:20:24;;;;;;;0.00;0.00;;;;;;;;;;5058542;28;20205;-72
2023/06/06 13:22:50;;;;;;;0.10;0.10;;;;;;;;;;5079926;28;20207;-72
2023/06/06 13:25:20;;;;;;;0.10;0.10;;;;;;;;;;5057585;28;20418;-72
2023/06/06 13:27:47;;;;;;;0.10;0.10;;;;;;;;;;5080235;28;20244;-71
2023/06/06 13:30:14;;;;;;;0.20;0.20;;;;;;;;;;5056765;28;20510;-72
2023/06/06 13:32:42;;;;;;;0.10;0.10;;;;;;;;;;5080946;28;20206;-72
2023/06/06 13:35:09;;;;;;;0.00;0.00;;;;;;;;;;5058240;28;20237;-73
2023/06/06 13:37:35;;;;;;;0.10;0.10;;;;;;;;;;5081477;28;20461;-72
2023/06/06 13:40:02;;;;;;;0.00;0.00;;;;;;;;;;5066170;28;20394;-73
2023/06/06 13:42:28;;;;;;;0.10;0.10;;;;;;;;;;5071662;28;20261;-73
2023/06/06 13:44:54;;;;;;;0.00;0.00;;;;;;;;;;5066006;28;20229;-72
2023/06/06 13:47:21;;;;;;;0.00;0.00;;;;;;;;;;5071446;28;20511;-72
2023/06/06 13:49:49;;;;;;;0.00;0.00;;;;;;;;;;5066473;28;20207;-73
2023/06/06 13:52:15;;;;;;;0.00;0.00;;;;;;;;;;5071132;28;20301;-72
2023/06/06 13:54:42;;;;;;;0.03;0.03;;;;;;;;;;5066162;28;20225;-72
2023/06/06 13:57:12;;;;;;;0.10;0.10;;;;;;;;;;5071259;28;20294;-72
2023/06/06 13:59:38;;;;;;;0.10;0.10;;;;;;;;;;5065694;28;20245;-72
2023/06/06 14:02:05;;;;;;;0.20;0.20;;;;;;;;;;5070727;28;20572;-72
2023/06/06 14:04:31;;;;;;;0.00;0.00;;;;;;;;;;5066226;28;20230;-72
2023/06/06 14:06:59;;;;;;;0.00;0.00;;;;;;;;;;5069685;28;20240;-71
2023/06/06 14:09:26;;;;;;;0.00;0.00;;;;;;;;;;5066627;28;20256;-71
2023/06/06 14:11:52;;;;;;;0.03;0.03;;;;;;;;;;5068793;28;20240;-71
2023/06/06 14:14:19;;;;;;;0.10;0.10;;;;;;;;;;5067803;28;20205;-72
2023/06/06 14:16:45;;;;;;;0.10;0.10;;;;;;;;;;5067832;28;20241;-71
2023/06/06 14:19:13;;;;;;;0.08;0.08;;;;;;;;;;5068456;28;20211;-72
2023/06/06 14:21:57;;;;;;;0.10;0.10;;;;;;;;;;5067075;28;20236;-71
2023/06/06 14:24:30;;;;;;;0.00;0.00;;;;;;;;;;5066622;28;20539;-71
2023/06/06 14:26:57;;;;;;;0.13;0.13;;;;;;;;;;5069146;28;20300;-71
2023/06/06 14:29:24;;;;;;;0.10;0.10;;;;;;;;;;5066457;28;20239;-73
2023/06/06 14:31:51;;;;;;;0.00;0.00;;;;;;;;;;5068193;28;20250;-71
2023/06/06 14:34:17;;;;;;;4.95;2.90;;;;;;;;;;5067257;28;20232;-72
2023/06/06 14:36:44;;;;;;;0.00;0.00;;;;;;;;;;5067271;28;20272;-72
2023/06/06 14:39:11;;;;;;;0.00;0.00;;;;;;;;;;5068072;28;20403;-72
2023/06/06 14:41:38;;;;;;;0.00;0.00;;;;;;;;;;5066395;28;20242;-72
2023/06/06 14:44:05;;;;;;;0.10;0.10;;;;;;;;;;5068895;28;20238;-72